Time;durP1;ratioP1;P1;durP2;ratioP2;P2;SDS_P1;SDS_P2;PMS_P1;PMS_P2;Temp;Humidity;BMP_temperature;BMP_pressure;BME280_temperature;BME280_humidity;BME280_pressure;Samples;Min_cycle;Max_cycle;Signal;HPM_P1;HPM_P2
2023/12/19 00:02:50;;;;;;;273.35;29.45;;;;;;;2.45;63.03;101091.50;7711130;32;38068;-80
2023/12/19 00:07:07;;;;;;;277.45;28.95;;;;;;;2.20;63.25;101078.31;7717393;32;40140;-79
2023/12/19 00:11:23;;;;;;;87.35;22.92;;;;;;;2.21;62.58;101085.38;7739074;32;39969;-80
2023/12/19 00:15:39;;;;;;;60.08;20.95;;;;;;;2.34;62.11;101078.50;7738974;32;37974;-79
2023/12/19 00:19:56;;;;;;;81.43;22.67;;;;;;;2.27;62.54;101082.97;7719676;32;37752;-79
2023/12/19 00:24:12;;;;;;;62.72;23.20;;;;;;;2.15;62.87;101086.09;7712154;32;39480;-80
2023/12/19 00:28:31;;;;;;;67.45;21.58;;;;;;;2.26;62.73;101084.81;7712110;32;39968;-81
2023/12/19 00:32:47;;;;;;;44.00;21.70;;;;;;;2.29;62.84;101081.75;7711981;32;38004;-80
2023/12/19 00:37:04;;;;;;;40.55;21.92;;;;;;;2.42;62.00;101087.31;7711970;32;36929;-80
2023/12/19 00:41:20;;;;;;;41.75;21.08;;;;;;;2.48;61.47;101085.72;7712050;32;40134;-80
2023/12/19 00:45:36;;;;;;;38.42;21.48;;;;;;;2.32;61.65;101085.94;7711822;32;40014;-79
2023/12/19 00:49:53;;;;;;;35.53;20.88;;;;;;;2.51;60.81;101090.75;7712004;32;37877;-79
2023/12/19 00:54:09;;;;;;;40.60;21.52;;;;;;;2.29;61.17;101099.75;7738634;32;37874;-79
2023/12/19 00:58:26;;;;;;;46.67;22.40;;;;;;;2.40;60.99;101096.62;7738628;32;39197;-79
2023/12/19 01:02:42;;;;;;;68.78;23.77;;;;;;;2.43;61.03;101101.59;7738336;32;40686;-79
2023/12/19 01:06:58;;;;;;;71.28;22.70;;;;;;;2.27;61.81;101102.63;7738429;32;38830;-79
2023/12/19 01:11:15;;;;;;;123.50;24.05;;;;;;;2.03;62.19;101092.97;7738507;32;37202;-79
2023/12/19 01:15:31;;;;;;;48.33;23.25;;;;;;;2.15;61.84;101090.66;7737931;32;39341;-79
2023/12/19 01:19:47;;;;;;;116.88;24.65;;;;;;;2.34;61.38;101084.72;7738410;32;39619;-80
2023/12/19 01:24:04;;;;;;;43.45;19.92;;;;;;;2.02;62.12;101075.16;7738176;32;37836;-80
2023/12/19 01:28:21;;;;;;;58.63;22.87;;;;;;;2.16;61.95;101076.19;7736922;32;37481;-79
2023/12/19 01:32:37;;;;;;;50.40;21.10;;;;;;;1.91;62.60;101067.53;7738173;32;39341;-79
2023/12/19 01:36:55;;;;;;;34.30;19.45;;;;;;;1.71;62.51;101046.56;7738018;32;40811;-79
2023/12/19 01:41:13;;;;;;;36.13;19.85;;;;;;;2.00;61.56;101050.28;7738097;32;37678;-79
2023/12/19 01:45:30;;;;;;;38.08;19.00;;;;;;;1.66;61.34;101052.47;7738016;32;37208;-80
2023/12/19 01:49:48;;;;;;;36.67;18.87;;;;;;;1.94;60.37;101048.34;7738027;32;39064;-80
2023/12/19 01:54:06;;;;;;;33.45;19.70;;;;;;;1.85;60.37;101042.22;7737858;32;39964;-80
2023/12/19 01:58:23;;;;;;;36.47;19.73;;;;;;;1.55;60.78;101033.25;7737831;32;38694;-80
2023/12/19 02:02:40;;;;;;;35.17;20.80;;;;;;;1.81;59.75;101028.31;7737735;32;38044;-79
2023/12/19 02:06:57;;;;;;;33.47;19.42;;;;;;;1.67;59.96;101018.34;7737666;32;39504;-80
2023/12/19 02:11:14;;;;;;;32.78;19.77;;;;;;;1.49;59.95;101016.84;7729188;32;40957;-79
2023/12/19 02:15:30;;;;;;;34.08;19.27;;;;;;;1.35;60.24;101004.22;7710741;32;37718;-80
2023/12/19 02:19:48;;;;;;;38.05;19.17;;;;;;;1.55;59.67;100999.13;7710705;32;37186;-79
2023/12/19 02:24:04;;;;;;;32.58;18.60;;;;;;;1.31;60.17;101008.25;7709565;32;40096;-80
2023/12/19 02:28:21;;;;;;;32.63;19.65;;;;;;;1.16;61.06;100999.34;7710483;32;39960;-79
2023/12/19 02:32:37;;;;;;;33.50;19.02;;;;;;;1.51;59.71;101008.59;7710394;32;38699;-80
2023/12/19 02:36:53;;;;;;;32.90;17.50;;;;;;;1.40;59.46;101007.19;7710481;32;37174;-79
2023/12/19 02:41:10;;;;;;;31.50;16.92;;;;;;;0.83;61.06;101002.25;7710355;32;39505;-79
2023/12/19 02:45:30;;;;;;;28.50;16.58;;;;;;;0.69;61.44;100999.31;7710048;32;40166;-79
2023/12/19 02:49:46;;;;;;;26.55;16.23;;;;;;;0.99;60.56;100994.09;7710209;32;37861;-79
2023/12/19 02:54:03;;;;;;;27.23;16.42;;;;;;;0.92;60.70;101001.19;7709969;32;38060;-79
2023/12/19 02:58:19;;;;;;;31.08;16.87;;;;;;;0.83;61.06;101002.25;7713295;32;40108;-79
2023/12/19 03:02:36;;;;;;;28.90;17.17;;;;;;;1.04;60.38;100999.75;7736374;32;39886;-79
2023/12/19 03:06:52;;;;;;;30.98;17.87;;;;;;;1.08;59.74;101003.75;7734976;32;37648;-80
2023/12/19 03:11:08;;;;;;;28.98;17.17;;;;;;;0.84;60.93;100996.69;7736332;32;37916;-80
2023/12/19 03:15:24;;;;;;;27.17;16.48;;;;;;;0.84;60.89;100990.50;7736304;32;39385;-79
2023/12/19 03:19:41;;;;;;;29.77;16.12;;;;;;;1.00;60.54;100985.03;7736155;32;39979;-80
2023/12/19 03:23:57;;;;;;;27.05;16.83;;;;;;;0.84;60.59;100985.13;7735966;32;38047;-79
2023/12/19 03:28:14;;;;;;;28.98;15.85;;;;;;;0.84;60.74;100985.13;7735886;32;38204;-81
2023/12/19 03:32:30;;;;;;;29.33;16.33;;;;;;;0.80;60.90;100983.81;7735880;32;39264;-79
2023/12/19 03:36:47;;;;;;;27.80;15.93;;;;;;;0.92;60.80;100979.72;7736088;32;40945;-79
2023/12/19 03:41:03;;;;;;;29.65;16.05;;;;;;;0.17;62.83;100986.50;7739456;32;38034;-80
2023/12/19 03:45:19;;;;;;;28.50;16.52;;;;;;;0.68;62.30;100989.59;7739411;32;37282;-79
2023/12/19 03:49:35;;;;;;;25.55;15.32;;;;;;;0.92;61.88;100991.28;7739696;32;39962;-80
2023/12/19 03:53:52;;;;;;;28.50;15.45;;;;;;;0.97;61.88;101000.63;7717060;32;40764;-79
2023/12/19 03:58:08;;;;;;;26.73;15.07;;;;;;;1.05;61.57;100979.94;7712498;32;38706;-79
2023/12/19 04:02:24;;;;;;;25.02;14.98;;;;;;;1.25;60.27;100974.06;7712440;32;37197;-79
2023/12/19 04:06:44;;;;;;;27.45;14.50;;;;;;;1.17;60.49;100963.38;7712434;32;39317;-79
2023/12/19 04:11:01;;;;;;;26.75;15.07;;;;;;;1.23;60.67;100970.75;7718275;32;40966;-80
2023/12/19 04:15:17;;;;;;;30.90;15.60;;;;;;;1.20;61.07;100992.59;7739105;32;37944;-79
2023/12/19 04:19:33;;;;;;;26.15;14.55;;;;;;;1.25;61.15;100998.25;7739181;32;37381;-80
2023/12/19 04:23:50;;;;;;;31.10;15.75;;;;;;;0.85;62.47;101003.75;7739038;32;39845;-79
2023/12/19 04:28:06;;;;;;;30.40;15.65;;;;;;;1.12;61.76;100999.69;7738785;32;40887;-79
2023/12/19 04:32:23;;;;;;;30.25;16.10;;;;;;;1.00;61.69;101009.19;7738935;32;38758;-80
2023/12/19 04:36:39;;;;;;;27.02;15.13;;;;;;;1.04;61.47;101006.97;7738887;32;37337;-79
2023/12/19 04:40:56;;;;;;;28.80;15.82;;;;;;;0.91;62.12;101007.56;7738809;32;39947;-79
2023/12/19 04:45:12;;;;;;;32.00;16.55;;;;;;;0.83;62.33;100995.03;7735319;32;40209;-79
2023/12/19 04:49:28;;;;;;;26.35;14.43;;;;;;;0.72;62.50;100992.75;7715803;32;38046;-79
2023/12/19 04:53:46;;;;;;;25.77;14.68;;;;;;;1.04;61.52;100986.31;7738631;32;38004;-80
2023/12/19 04:58:03;;;;;;;27.60;15.02;;;;;;;0.88;61.76;100981.06;7738630;32;39600;-79
2023/12/19 05:02:19;;;;;;;24.87;15.07;;;;;;;0.92;61.41;100967.09;7738276;32;39927;-79
2023/12/19 05:06:36;;;;;;;25.00;14.52;;;;;;;0.77;62.08;100968.06;7738338;32;38900;-79
2023/12/19 05:10:52;;;;;;;24.50;14.63;;;;;;;0.84;62.02;100985.13;7738502;32;37512;-79
2023/12/19 05:15:08;;;;;;;27.40;14.95;;;;;;;0.92;61.75;100987.75;7738444;32;39434;-81
2023/12/19 05:19:25;;;;;;;26.80;13.30;;;;;;;0.83;61.66;100981.63;7738501;32;40846;-80
2023/12/19 05:23:41;;;;;;;29.87;13.80;;;;;;;0.98;60.88;100964.72;7738311;32;38724;-79
2023/12/19 05:27:58;;;;;;;21.25;12.00;;;;;;;0.81;61.15;100956.81;7738138;32;37707;-79
2023/12/19 05:32:14;;;;;;;22.52;13.80;;;;;;;0.92;60.57;100955.53;7738210;32;39315;-78
2023/12/19 05:36:33;;;;;;;23.48;13.48;;;;;;;0.54;62.04;100967.03;7738142;32;40883;-80
2023/12/19 05:40:58;;;;;;;27.10;15.60;;;;;;;0.80;61.46;100947.06;7735894;32;38818;-79
2023/12/19 05:45:14;;;;;;;26.00;13.55;;;;;;;0.80;61.42;100935.50;7737989;32;37278;-79
2023/12/19 05:49:31;;;;;;;28.77;15.32;;;;;;;0.32;63.43;100939.16;7738047;32;40067;-79
2023/12/19 05:53:47;;;;;;;27.85;16.35;;;;;;;0.88;62.17;100922.00;7737896;32;40019;-79
2023/12/19 05:58:04;;;;;;;24.00;14.02;;;;;;;0.63;63.11;100935.59;7737738;32;37779;-80
2023/12/19 06:02:21;;;;;;;25.95;14.38;;;;;;;0.74;62.56;100937.88;7736440;32;37772;-78
2023/12/19 06:06:42;;;;;;;20.77;13.52;;;;;;;0.71;62.40;100932.88;7733057;32;39431;-77
2023/12/19 06:10:59;;;;;;;24.42;13.23;;;;;;;0.72;62.18;100934.53;7713007;32;39947;-78
2023/12/19 06:15:15;;;;;;;23.80;13.38;;;;;;;0.82;61.74;100938.84;7685000;32;38737;-77
2023/12/19 06:19:31;;;;;;;25.52;14.43;;;;;;;0.77;61.64;100935.84;7688003;32;37311;-81
2023/12/19 06:23:48;;;;;;;25.58;14.05;;;;;;;0.79;61.61;100947.25;7710790;32;40087;-81
2023/12/19 06:28:05;;;;;;;23.35;14.20;;;;;;;0.56;62.36;100942.72;7710497;32;39715;-78
2023/12/19 06:32:22;;;;;;;25.65;13.95;;;;;;;0.55;62.47;100946.38;7710417;32;38819;-79
2023/12/19 06:36:40;;;;;;;24.92;14.18;;;;;;;0.87;61.85;100953.38;7721601;32;37419;-79
2023/12/19 06:40:56;;;;;;;29.20;15.60;;;;;;;0.59;62.61;100950.41;7737177;32;40157;-80
2023/12/19 06:45:13;;;;;;;28.17;16.02;;;;;;;0.71;62.56;100948.97;7736946;32;40847;-82
2023/12/19 06:49:29;;;;;;;36.25;16.45;;;;;;;0.95;61.97;100955.19;7736932;32;38803;-79
2023/12/19 06:53:46;;;;;;;28.42;15.18;;;;;;;0.81;62.30;100953.25;7736765;32;37819;-80
2023/12/19 06:58:02;;;;;;;29.67;15.38;;;;;;;0.62;63.01;100944.69;7736786;32;39559;-80
2023/12/19 07:02:19;;;;;;;29.25;15.32;;;;;;;0.92;62.11;100944.81;7736380;32;39902;-80
2023/12/19 07:06:35;;;;;;;28.42;15.30;;;;;;;0.67;62.77;100938.75;7721614;32;38696;-79
2023/12/19 07:10:54;;;;;;;28.75;16.05;;;;;;;1.00;62.08;100938.50;7710289;32;38046;-79
2023/12/19 07:15:10;;;;;;;29.40;16.77;;;;;;;0.95;62.39;100944.44;7713053;32;39480;-79
2023/12/19 07:19:27;;;;;;;32.45;15.70;;;;;;;0.90;62.41;100938.78;7712956;32;40866;-78
2023/12/19 07:23:43;;;;;;;31.08;16.08;;;;;;;0.97;62.39;100939.72;7712609;32;38122;-78
2023/12/19 07:27:59;;;;;;;27.00;15.68;;;;;;;1.01;62.33;100946.41;7712702;32;37981;-78
2023/12/19 07:32:16;;;;;;;28.83;15.73;;;;;;;0.91;62.50;100945.81;7712844;32;39150;-82
2023/12/19 07:36:33;;;;;;;26.67;14.40;;;;;;;1.24;61.63;100958.94;7711624;32;40574;-82
2023/12/19 07:40:49;;;;;;;30.70;17.00;;;;;;;0.89;63.03;100961.25;7712611;32;37853;-82
2023/12/19 07:45:06;;;;;;;27.83;15.63;;;;;;;1.23;61.87;100963.50;7712842;32;37245;-82
2023/12/19 07:49:23;;;;;;;28.15;15.48;;;;;;;1.15;61.85;100977.00;7712766;32;40244;-73
2023/12/19 07:53:39;;;;;;;29.23;15.40;;;;;;;1.26;65.60;100978.41;7712581;32;40875;-82
2023/12/19 07:57:55;;;;;;;27.83;14.52;;;;;;;1.45;63.66;100994.03;7712375;32;38029;-81
2023/12/19 08:02:12;;;;;;;30.15;14.27;;;;;;;1.44;62.68;100991.53;7712352;32;37483;-80
2023/12/19 08:06:28;;;;;;;29.75;15.82;;;;;;;1.39;62.04;100993.94;7713109;32;39845;-82
2023/12/19 08:10:45;;;;;;;29.52;15.13;;;;;;;1.33;61.56;100992.81;7713301;32;40176;-82
2023/12/19 08:15:01;;;;;;;25.80;14.90;;;;;;;1.19;61.51;100998.97;7712137;32;38809;-86
2023/12/19 08:19:18;;;;;;;29.08;15.68;;;;;;;1.60;60.87;100990.53;7720681;32;37741;-85
2023/12/19 08:23:34;;;;;;;27.45;15.13;;;;;;;1.49;60.28;100981.91;7700493;32;39401;-81
2023/12/19 08:27:51;;;;;;;29.42;15.60;;;;;;;1.37;61.01;100982.53;7711061;32;39953;-82
2023/12/19 08:32:07;;;;;;;28.02;13.98;;;;;;;1.28;61.06;100977.22;7712220;32;37955;-81
2023/12/19 08:36:23;;;;;;;29.10;15.07;;;;;;;1.39;61.27;100970.56;7712153;32;38015;-78
2023/12/19 08:40:50;;;;;;;27.25;14.55;;;;;;;1.01;62.58;100965.19;7712260;32;39213;-78
2023/12/19 08:45:13;;;;;;;28.00;14.68;;;;;;;1.43;61.56;100952.22;7712391;32;40083;-81
2023/12/19 08:49:29;;;;;;;;;;;;;;;1.44;62.12;100954.72;7712210;32;38758;-80
2023/12/19 08:53:46;;;;;;;28.95;14.90;;;;;;;1.72;60.50;100951.41;7712566;32;37009;-82
2023/12/19 08:58:02;;;;;;;39.28;14.90;;;;;;;1.31;62.20;100949.16;7711853;32;39971;-80
2023/12/19 09:02:19;;;;;;;28.20;14.55;;;;;;;1.43;61.66;100947.72;7711546;32;40043;-80
2023/12/19 09:06:35;;;;;;;29.45;15.25;;;;;;;1.59;61.23;100933.25;7711563;32;38754;-81
2023/12/19 09:10:51;;;;;;;26.92;13.98;;;;;;;1.47;61.37;100924.81;7719718;32;37327;-80
2023/12/19 09:15:09;;;;;;;24.95;14.85;;;;;;;1.47;60.73;100908.69;7703084;32;39488;-80
2023/12/19 09:19:26;;;;;;;27.95;15.45;;;;;;;1.61;61.21;100903.50;7684887;32;39964;-80
2023/12/19 09:23:42;;;;;;;27.27;15.60;;;;;;;1.16;62.16;100895.41;7684857;32;38831;-81
2023/12/19 09:27:59;;;;;;;27.90;15.80;;;;;;;1.63;61.24;100879.97;7697535;32;37993;-80
2023/12/19 09:32:16;;;;;;;26.87;14.80;;;;;;;1.47;61.49;100876.44;7711517;32;39470;-78
2023/12/19 09:36:34;;;;;;;30.00;15.13;;;;;;;1.58;61.21;100867.06;7710831;32;40028;-79
2023/12/19 09:41:04;;;;;;;28.08;16.15;;;;;;;1.67;61.90;100851.66;7710982;32;37900;-80
2023/12/19 09:45:20;;;;;;;30.77;16.90;;;;;;;1.79;62.85;100834.03;7736987;32;37991;-80
2023/12/19 09:49:39;;;;;;;30.12;15.30;;;;;;;1.75;62.41;100830.06;7732138;32;40123;-77
2023/12/19 09:53:57;;;;;;;24.17;14.63;;;;;;;1.97;61.79;100819.38;7734850;32;39662;-78
2023/12/19 09:58:14;;;;;;;29.27;14.30;;;;;;;2.21;60.37;100802.84;7708592;32;38707;-78
2023/12/19 10:02:31;;;;;;;29.67;16.85;;;;;;;2.10;60.24;100797.13;7709733;32;37194;-81
2023/12/19 10:06:54;;;;;;;32.63;16.20;;;;;;;2.10;60.54;100791.75;7711046;32;39398;-79
2023/12/19 10:11:18;;;;;;;31.95;17.12;;;;;;;2.19;60.30;100791.44;7709813;32;39667;-79
2023/12/19 10:15:34;;;;;;;;;;;;;;;2.03;60.66;100778.22;7709040;32;37736;-79
2023/12/19 10:19:50;;;;;;;28.35;16.33;;;;;;;2.11;61.11;100783.50;7710117;32;36545;-80
2023/12/19 10:24:09;;;;;;;33.22;17.15;;;;;;;1.94;61.91;100776.69;7709727;32;40091;-80
2023/12/19 10:28:26;;;;;;;33.45;17.80;;;;;;;1.95;62.30;100764.91;7709002;32;41234;-78
2023/12/19 10:32:43;;;;;;;37.35;18.65;;;;;;;2.38;60.71;100772.97;7710499;32;38815;-79
2023/12/19 10:37:12;;;;;;;33.05;16.62;;;;;;;2.30;60.67;100760.50;7708958;32;38096;-78
2023/12/19 10:41:31;;;;;;;32.60;16.65;;;;;;;2.48;60.32;100757.31;7708263;32;40235;-78
2023/12/19 10:45:48;;;;;;;33.95;17.80;;;;;;;2.34;59.53;100755.56;7709384;32;39998;-78
2023/12/19 10:50:05;;;;;;;26.23;15.55;;;;;;;1.86;61.50;100751.59;7708892;32;38037;-79
2023/12/19 10:54:24;;;;;;;29.20;16.65;;;;;;;2.37;60.36;100739.03;7710112;32;37810;-78
2023/12/19 10:58:45;;;;;;;33.83;17.98;;;;;;;2.31;60.04;100734.41;7708839;32;39287;-78
2023/12/19 11:03:33;;;;;;;32.55;16.35;;;;;;;2.54;59.68;100723.44;7709614;32;40922;-78
2023/12/19 11:07:51;;;;;;;33.22;17.25;;;;;;;2.50;60.04;100723.00;7709708;32;37679;-79
2023/12/19 11:12:11;;;;;;;28.48;16.40;;;;;;;2.43;59.10;100719.38;7708861;32;35752;-78
2023/12/19 11:16:32;;;;;;;30.83;16.65;;;;;;;2.59;59.02;100715.59;7708315;32;40143;-78
2023/12/19 11:20:58;;;;;;;31.37;15.65;;;;;;;2.12;60.36;100704.47;7708331;32;40699;-78
2023/12/19 11:25:31;;;;;;;26.40;16.27;;;;;;;2.46;59.66;100705.53;7708212;32;38790;-79
2023/12/19 11:29:50;;;;;;;30.17;16.93;;;;;;;2.29;60.71;100696.09;7708161;32;37220;-78
2023/12/19 11:34:23;;;;;;;32.55;17.65;;;;;;;2.44;59.52;100696.84;7709117;32;39406;-78
2023/12/19 11:38:40;;;;;;;32.17;17.55;;;;;;;2.64;60.05;100694.28;7708927;32;40023;-78
2023/12/19 11:42:57;;;;;;;29.87;16.77;;;;;;;2.88;57.96;100692.13;7709070;32;38196;-79
2023/12/19 11:47:17;;;;;;;32.40;15.95;;;;;;;2.89;57.95;100689.25;7708662;32;37904;-78
2023/12/19 11:51:45;;;;;;;36.33;18.58;;;;;;;2.99;57.56;100681.63;7708784;32;39866;-78
2023/12/19 11:56:09;;;;;;;34.05;17.55;;;;;;;2.55;58.28;100680.16;7708502;32;40970;-78
2023/12/19 12:00:26;;;;;;;34.22;18.58;;;;;;;2.52;58.91;100669.78;7712528;32;37909;-78
2023/12/19 12:04:42;;;;;;;34.60;17.80;;;;;;;2.50;59.51;100655.69;7712328;32;37334;-79
2023/12/19 12:08:59;;;;;;;30.05;16.08;;;;;;;2.85;59.67;100652.97;7712040;32;39401;-79
2023/12/19 12:13:17;;;;;;;34.58;18.10;;;;;;;3.18;58.86;100652.28;7712600;32;40557;-78
2023/12/19 12:17:34;;;;;;;33.75;17.67;;;;;;;3.32;58.09;100640.50;7712400;32;37554;-79
2023/12/19 12:21:51;;;;;;;34.15;17.42;;;;;;;3.59;56.94;100629.78;7711829;32;37284;-79
2023/12/19 12:26:08;;;;;;;34.33;17.58;;;;;;;3.64;57.66;100626.47;7712182;32;39694;-70
2023/12/19 12:30:31;;;;;;;35.78;17.58;;;;;;;2.69;59.41;100626.38;7712311;32;39880;-79
2023/12/19 12:34:47;;;;;;;30.35;16.17;;;;;;;3.18;58.31;100622.66;7712229;32;38778;-79
2023/12/19 12:39:04;;;;;;;37.35;17.55;;;;;;;3.05;58.99;100614.50;7711999;32;37305;-78
2023/12/19 12:43:39;;;;;;;35.03;16.80;;;;;;;3.24;58.06;100612.91;7712078;32;39343;-76
2023/12/19 12:48:10;;;;;;;42.47;19.02;;;;;;;3.11;58.03;100611.84;7711856;32;39856;-77
2023/12/19 12:52:26;;;;;;;35.63;17.83;;;;;;;2.96;58.26;100600.38;7711914;32;37672;-77
2023/12/19 12:56:42;;;;;;;31.25;16.85;;;;;;;2.86;58.68;100595.38;7711852;32;37352;-78
2023/12/19 13:01:00;;;;;;;37.65;17.40;;;;;;;2.94;58.43;100589.81;7711951;32;39373;-78
2023/12/19 13:05:17;;;;;;;36.65;18.73;;;;;;;2.93;58.40;100585.47;7711590;32;41820;-77
2023/12/19 13:09:33;;;;;;;41.20;18.98;;;;;;;2.40;60.40;100577.16;7710846;32;38857;-77
2023/12/19 13:13:52;;;;;;;44.05;21.55;;;;;;;2.23;60.04;100564.00;7726117;32;151218;-78
2023/12/19 13:18:09;;;;;;;41.95;18.98;;;;;;;2.37;60.08;100570.31;7738247;32;40225;-79
2023/12/19 13:22:26;;;;;;;41.58;19.92;;;;;;;2.02;60.95;100569.47;7737122;32;40722;-78
2023/12/19 13:26:42;;;;;;;41.00;19.60;;;;;;;2.06;60.65;100560.81;7738300;32;38512;-79
2023/12/19 13:30:58;;;;;;;41.88;18.80;;;;;;;2.30;60.55;100552.47;7738344;32;37834;-79
2023/12/19 13:35:15;;;;;;;42.83;19.90;;;;;;;2.12;61.39;100553.81;7736128;32;39472;-79
2023/12/19 13:39:31;;;;;;;38.78;18.98;;;;;;;2.15;61.17;100553.41;7736855;32;39934;-79
2023/12/19 13:43:47;;;;;;;39.30;18.92;;;;;;;2.08;61.29;100562.47;7736882;32;38081;-79
2023/12/19 13:48:06;;;;;;;39.63;19.45;;;;;;;2.27;61.39;100558.25;7737455;32;38139;-80
2023/12/19 13:52:22;;;;;;;38.08;17.65;;;;;;;2.01;62.28;100552.50;7738235;32;40203;-79
2023/12/19 13:56:39;;;;;;;35.33;17.58;;;;;;;2.37;60.62;100550.66;7737984;32;39917;-80
2023/12/19 14:00:55;;;;;;;40.70;19.45;;;;;;;2.36;60.71;100560.59;7738030;32;37971;-79
2023/12/19 14:05:12;;;;;;;41.88;18.70;;;;;;;2.40;60.10;100555.63;7737666;32;37398;-80
2023/12/19 14:09:31;;;;;;;41.88;19.10;;;;;;;2.39;60.08;100544.00;7736733;32;39109;-79
2023/12/19 14:13:47;;;;;;;39.78;18.90;;;;;;;2.00;61.40;100539.25;7737826;32;41109;-79
2023/12/19 14:18:04;;;;;;;44.65;19.48;;;;;;;1.92;61.23;100531.34;7737645;32;38574;-79
2023/12/19 14:22:21;;;;;;;44.28;18.65;;;;;;;2.07;61.37;100526.69;7736348;32;37201;-80
2023/12/19 14:26:37;;;;;;;38.22;18.85;;;;;;;2.01;60.89;100511.31;7737619;32;39075;-79
2023/12/19 14:30:56;;;;;;;39.20;18.02;;;;;;;2.14;60.89;100511.41;7737392;32;39947;-79
2023/12/19 14:35:14;;;;;;;40.38;18.05;;;;;;;2.15;60.92;100496.91;7737340;32;38054;-80
2023/12/19 14:39:31;;;;;;;37.65;17.67;;;;;;;1.59;62.39;100488.94;7737414;32;37093;-79
2023/12/19 14:43:51;;;;;;;37.25;17.37;;;;;;;2.00;61.17;100491.69;7737221;32;39893;-79
2023/12/19 14:48:07;;;;;;;38.28;17.35;;;;;;;1.97;61.83;100472.41;7736883;32;40810;-78
2023/12/19 14:52:25;;;;;;;37.05;17.75;;;;;;;2.19;61.15;100467.75;7736932;32;38559;-79
2023/12/19 14:56:42;;;;;;;38.78;18.02;;;;;;;2.05;61.37;100461.47;7736870;32;36943;-80
2023/12/19 15:00:59;;;;;;;37.92;17.23;;;;;;;1.80;62.22;100453.91;7736875;32;39592;-79
2023/12/19 15:05:15;;;;;;;34.47;16.58;;;;;;;2.17;61.24;100437.53;7736386;32;40106;-79
2023/12/19 15:09:32;;;;;;;35.58;16.02;;;;;;;2.15;60.96;100435.03;7736365;32;38926;-79
2023/12/19 15:13:50;;;;;;;32.95;16.08;;;;;;;1.92;61.71;100435.34;7736453;32;37099;-78
2023/12/19 15:18:06;;;;;;;31.77;16.37;;;;;;;1.63;62.46;100441.81;7736426;32;38986;-78
2023/12/19 15:22:22;;;;;;;40.28;17.35;;;;;;;1.86;61.87;100441.53;7736242;32;40033;-78
2023/12/19 15:26:39;;;;;;;37.85;17.17;;;;;;;1.62;62.67;100441.00;7735977;32;38684;-78
2023/12/19 15:30:56;;;;;;;38.63;16.20;;;;;;;1.46;63.24;100442.09;7736021;32;38427;-78
2023/12/19 15:35:12;;;;;;;43.60;17.10;;;;;;;1.23;64.78;100436.97;7739845;32;39126;-78
2023/12/19 15:39:29;;;;;;;39.30;16.37;;;;;;;1.40;64.23;100439.38;7739636;32;40107;-78
2023/12/19 15:43:46;;;;;;;44.35;17.27;;;;;;;1.40;64.53;100436.69;7739610;32;37694;-78
2023/12/19 15:48:16;;;;;;;40.20;16.83;;;;;;;1.46;64.40;100435.91;7739428;32;36862;-78
2023/12/19 15:52:34;;;;;;;43.10;18.83;;;;;;;1.34;64.95;100430.22;7739477;32;39396;-78
2023/12/19 15:56:54;;;;;;;49.88;17.65;;;;;;;1.54;64.25;100435.75;7739504;32;40844;-78
2023/12/19 16:01:11;;;;;;;34.28;18.27;;;;;;;1.37;64.95;100429.03;7738119;32;38773;-77
2023/12/19 16:05:27;;;;;;;47.97;18.37;;;;;;;1.65;64.15;100429.00;7739141;32;37906;-78
2023/12/19 16:09:45;;;;;;;42.85;17.30;;;;;;;1.62;64.48;100424.84;7739221;32;40041;-78
2023/12/19 16:14:02;;;;;;;40.60;17.25;;;;;;;1.71;64.38;100412.09;7739088;32;39996;-78
2023/12/19 16:18:19;;;;;;;41.42;18.02;;;;;;;1.76;64.30;100420.37;7739314;32;38683;-78
2023/12/19 16:22:35;;;;;;;51.17;17.05;;;;;;;1.67;64.76;100405.44;7739091;32;37211;-77
2023/12/19 16:26:55;;;;;;;46.33;17.98;;;;;;;1.68;64.59;100401.72;7739138;32;40139;-78
2023/12/19 16:31:15;;;;;;;38.05;16.75;;;;;;;1.64;64.62;100389.72;7738871;32;40805;-78
2023/12/19 16:35:31;;;;;;;46.08;16.83;;;;;;;1.69;64.55;100392.63;7738889;32;38784;-78
2023/12/19 16:39:53;;;;;;;40.55;16.90;;;;;;;1.65;64.69;100386.00;7738936;32;37344;-78
2023/12/19 16:44:09;;;;;;;35.85;17.83;;;;;;;1.26;66.36;100385.56;7738090;32;39581;-78
2023/12/19 16:48:25;;;;;;;41.63;17.65;;;;;;;1.53;65.86;100383.03;7738662;32;40880;-78
2023/12/19 16:52:42;;;;;;;46.75;19.37;;;;;;;1.66;65.51;100382.28;7738753;32;37755;-78
2023/12/19 16:56:59;;;;;;;35.35;16.33;;;;;;;1.20;66.87;100380.13;7738605;32;38024;-78
2023/12/19 17:01:16;;;;;;;40.10;16.35;;;;;;;1.63;65.40;100388.06;7738674;32;39340;-78
2023/12/19 17:05:32;;;;;;;39.60;16.33;;;;;;;1.29;66.31;100395.06;7738450;32;40842;-78
2023/12/19 17:09:49;;;;;;;39.10;15.35;;;;;;;1.19;66.75;100386.53;7738421;32;38537;-78
2023/12/19 17:14:05;;;;;;;34.30;16.02;;;;;;;1.31;65.87;100384.94;7738498;32;37306;-78
2023/12/19 17:18:22;;;;;;;32.58;15.20;;;;;;;1.37;66.04;100388.72;7738649;32;39023;-78
2023/12/19 17:22:38;;;;;;;33.50;14.85;;;;;;;1.20;66.42;100385.50;7738497;32;40098;-78
2023/12/19 17:26:55;;;;;;;34.40;16.08;;;;;;;1.65;65.17;100391.38;7738490;32;38750;-79
2023/12/19 17:31:12;;;;;;;36.50;16.08;;;;;;;1.77;64.72;100384.41;7738362;32;36937;-78
2023/12/19 17:35:29;;;;;;;33.53;16.15;;;;;;;1.46;65.51;100379.47;7738334;32;39425;-78
2023/12/19 17:39:45;;;;;;;38.75;17.05;;;;;;;1.40;65.51;100370.34;7738087;32;40788;-78
2023/12/19 17:44:02;;;;;;;34.95;15.23;;;;;;;1.61;65.27;100371.31;7738164;32;38109;-79
2023/12/19 17:48:19;;;;;;;41.42;16.30;;;;;;;1.80;64.47;100358.97;7738103;32;37151;-78
2023/12/19 17:52:37;;;;;;;36.28;15.35;;;;;;;1.57;64.91;100362.81;7738146;32;39513;-78
2023/12/19 17:56:57;;;;;;;35.20;17.10;;;;;;;1.83;64.23;100350.53;7737905;32;39385;-78
2023/12/19 18:01:16;;;;;;;43.30;16.70;;;;;;;1.30;66.45;100359.13;7737965;32;38604;-78
2023/12/19 18:05:33;;;;;;;42.00;16.73;;;;;;;1.44;65.54;100363.53;7737972;32;38019;-78
2023/12/19 18:09:50;;;;;;;34.88;16.15;;;;;;;1.57;65.14;100351.22;7738003;32;38998;-78
2023/12/19 18:14:06;;;;;;;38.28;16.08;;;;;;;1.65;64.98;100359.09;7737776;32;39768;-78
2023/12/19 18:18:22;;;;;;;41.37;16.85;;;;;;;1.59;65.23;100343.78;7737677;32;38882;-78
2023/12/19 18:22:39;;;;;;;38.38;16.52;;;;;;;1.80;64.56;100342.84;7737724;32;37280;-77
2023/12/19 18:26:55;;;;;;;41.55;16.95;;;;;;;1.92;63.91;100332.34;7737563;32;40065;-77
2023/12/19 18:31:12;;;;;;;34.53;16.70;;;;;;;1.72;64.37;100333.09;7737593;32;40760;-78
2023/12/19 18:35:29;;;;;;;36.15;15.82;;;;;;;1.88;64.20;100319.31;7737410;32;38616;-78
2023/12/19 18:39:45;;;;;;;44.28;16.27;;;;;;;1.88;64.32;100305.84;7737295;32;37139;-78
2023/12/19 18:44:01;;;;;;;44.47;14.57;;;;;;;1.71;64.90;100307.25;7737216;32;39401;-78
2023/12/19 18:48:18;;;;;;;51.97;16.48;;;;;;;1.84;64.32;100288.47;7736978;32;40041;-78
2023/12/19 18:52:34;;;;;;;36.17;14.35;;;;;;;1.62;65.08;100289.62;7735766;32;38795;-78
2023/12/19 18:56:51;;;;;;;52.70;15.82;;;;;;;1.50;65.59;100282.16;7736982;32;37941;-77
2023/12/19 19:01:10;;;;;;;33.88;14.95;;;;;;;1.20;66.40;100270.00;7736493;32;40161;-78
2023/12/19 19:05:27;;;;;;;31.02;14.27;;;;;;;1.11;66.80;100261.28;7727805;32;40046;-78
2023/12/19 19:09:44;;;;;;;41.65;14.00;;;;;;;1.75;64.66;100253.91;7712299;32;37684;-79
2023/12/19 19:14:02;;;;;;;35.75;13.75;;;;;;;1.71;64.67;100242.75;7713160;32;37946;-79
2023/12/19 19:18:19;;;;;;;35.90;14.27;;;;;;;1.78;64.33;100240.87;7713161;32;39840;-80
2023/12/19 19:22:36;;;;;;;31.25;13.85;;;;;;;1.58;65.14;100240.00;7712952;32;39964;-79
2023/12/19 19:26:53;;;;;;;27.67;13.57;;;;;;;1.79;64.62;100242.53;7713060;32;37753;-79
2023/12/19 19:31:09;;;;;;;27.87;13.35;;;;;;;1.72;64.53;100241.69;7712188;32;37750;-82
2023/12/19 19:35:26;;;;;;;28.05;12.82;;;;;;;1.79;64.51;100231.78;7719015;32;39132;-83
2023/12/19 19:39:43;;;;;;;29.30;14.43;;;;;;;1.91;64.21;100228.50;7690828;32;40814;-86
2023/12/19 19:44:00;;;;;;;34.85;14.05;;;;;;;1.65;64.53;100225.53;7697657;32;37903;-86